createdAt,value
2023-03-17T00:01:51.302Z,8.61
2023-03-17T00:04:20.060Z,8.61
2023-03-17T00:06:48.704Z,8.58
2023-03-17T00:09:18.022Z,8.57
2023-03-17T00:11:46.808Z,8.54
2023-03-17T00:14:16.580Z,8.56
2023-03-17T00:16:46.418Z,8.57
2023-03-17T00:19:17.266Z,8.57
2023-03-17T00:21:45.807Z,8.51
2023-03-17T00:24:15.267Z,8.47
2023-03-17T00:26:43.258Z,8.41
2023-03-17T00:29:11.150Z,8.40
2023-03-17T00:31:40.634Z,8.41
2023-03-17T00:34:13.373Z,8.47
2023-03-17T00:36:41.416Z,8.49
2023-03-17T00:39:17.994Z,8.45
2023-03-17T00:44:27.682Z,8.46
2023-03-17T00:46:57.861Z,8.46
2023-03-17T00:49:26.735Z,8.51
2023-03-17T00:51:54.992Z,8.63
2023-03-17T00:54:22.932Z,8.56
2023-03-17T00:56:52.501Z,8.49
2023-03-17T00:59:26.238Z,8.40
2023-03-17T01:01:58.560Z,8.37
2023-03-17T01:04:26.484Z,8.34
2023-03-17T01:06:54.968Z,8.36
2023-03-17T01:09:26.833Z,8.40
2023-03-17T01:11:55.015Z,8.40
2023-03-17T01:14:24.689Z,8.37
2023-03-17T01:16:55.247Z,8.32
2023-03-17T01:19:24.758Z,8.37
2023-03-17T01:21:52.564Z,8.40
2023-03-17T01:24:21.029Z,8.37
2023-03-17T01:26:48.977Z,8.36
2023-03-17T01:29:16.634Z,8.34
2023-03-17T01:31:45.456Z,8.40
2023-03-17T01:34:13.279Z,8.37
2023-03-17T01:36:43.718Z,8.33
2023-03-17T01:39:12.881Z,8.27
2023-03-17T01:41:41.022Z,8.25
2023-03-17T01:44:13.092Z,8.22
2023-03-17T01:46:40.947Z,8.26
2023-03-17T01:49:14.596Z,8.28
2023-03-17T01:51:51.248Z,8.27
2023-03-17T01:54:25.326Z,8.30
2023-03-17T01:56:55.268Z,8.36
2023-03-17T01:59:29.840Z,8.32
2023-03-17T02:02:03.055Z,8.29
2023-03-17T02:04:31.572Z,8.24
2023-03-17T02:07:01.946Z,8.23
2023-03-17T02:09:29.869Z,8.21
2023-03-17T02:11:59.892Z,8.23
2023-03-17T02:14:28.693Z,8.16
2023-03-17T02:16:56.477Z,8.12
2023-03-17T02:19:24.273Z,8.14
2023-03-17T02:21:55.218Z,8.12
2023-03-17T02:24:35.884Z,8.11
2023-03-17T02:27:07.991Z,8.09
2023-03-17T02:29:37.798Z,8.17
2023-03-17T02:32:06.495Z,8.24
2023-03-17T02:34:34.660Z,8.19
2023-03-17T02:37:03.979Z,8.07
2023-03-17T02:39:32.054Z,8.00
2023-03-17T02:42:00.288Z,7.91
2023-03-17T02:44:28.104Z,7.88
2023-03-17T02:46:56.532Z,7.83
2023-03-17T02:49:25.993Z,7.82
2023-03-17T02:51:54.653Z,7.80
2023-03-17T02:54:24.296Z,7.90
2023-03-17T02:56:52.096Z,8.00
2023-03-17T02:59:19.893Z,7.98
2023-03-17T03:01:48.576Z,7.84
2023-03-17T03:04:16.536Z,7.75
2023-03-17T03:06:45.230Z,7.85
2023-03-17T03:09:13.758Z,7.71
2023-03-17T03:11:42.951Z,7.65
2023-03-17T03:14:11.381Z,7.64
2023-03-17T03:16:39.131Z,7.63
2023-03-17T03:19:07.881Z,7.60
2023-03-17T03:21:36.711Z,7.53
2023-03-17T03:24:05.335Z,7.54
2023-03-17T03:26:33.632Z,7.53
2023-03-17T03:29:02.918Z,7.49
2023-03-17T03:31:30.991Z,7.43
2023-03-17T03:33:58.622Z,7.41
2023-03-17T03:36:26.865Z,7.33
2023-03-17T03:38:54.854Z,7.33
2023-03-17T03:41:22.534Z,7.28
2023-03-17T03:43:50.377Z,7.25
2023-03-17T03:46:19.756Z,7.22
2023-03-17T03:48:47.459Z,7.27
2023-03-17T03:51:15.179Z,7.37
2023-03-17T03:53:43.178Z,7.46
2023-03-17T03:56:10.923Z,7.40
2023-03-17T03:58:39.120Z,7.31
2023-03-17T04:01:07.374Z,7.20
2023-03-17T04:03:36.781Z,7.16
2023-03-17T04:06:04.858Z,7.16
2023-03-17T04:08:35.156Z,7.14
2023-03-17T04:11:02.830Z,7.15
2023-03-17T04:13:30.749Z,7.14
2023-03-17T04:15:58.486Z,7.18
2023-03-17T04:18:26.372Z,7.30
2023-03-17T04:20:55.537Z,7.29
2023-03-17T04:23:23.279Z,7.32
2023-03-17T04:25:51.930Z,7.20
2023-03-17T04:28:20.507Z,7.25
2023-03-17T04:30:48.305Z,7.29
2023-03-17T04:33:16.071Z,7.25
2023-03-17T04:35:44.044Z,7.29
2023-03-17T04:38:14.292Z,7.26
2023-03-17T04:40:42.241Z,7.10
2023-03-17T04:43:10.381Z,6.95
2023-03-17T04:45:39.276Z,6.82
2023-03-17T04:48:08.601Z,6.70
2023-03-17T04:50:36.721Z,6.62
2023-03-17T04:53:04.846Z,6.62
2023-03-17T04:55:34.257Z,6.59
2023-03-17T04:58:02.044Z,6.50
2023-03-17T05:00:30.016Z,6.46
2023-03-17T05:02:58.004Z,6.45
2023-03-17T05:05:25.920Z,6.45
2023-03-17T05:07:53.610Z,6.47
2023-03-17T05:10:21.420Z,6.38
2023-03-17T05:12:50.607Z,6.35
2023-03-17T05:15:18.660Z,6.31
2023-03-17T05:17:46.728Z,6.33
2023-03-17T05:20:15.640Z,6.37
2023-03-17T05:22:43.412Z,6.57
2023-03-17T05:25:11.332Z,6.60
2023-03-17T05:27:39.464Z,6.46
2023-03-17T05:30:10.187Z,6.40
2023-03-17T05:32:38.257Z,6.32
2023-03-17T05:35:06.895Z,6.30
2023-03-17T05:37:34.881Z,6.31
2023-03-17T05:40:03.109Z,6.30
2023-03-17T05:42:31.028Z,6.30
2023-03-17T05:44:58.806Z,6.39
2023-03-17T05:47:28.087Z,6.61
2023-03-17T05:49:56.195Z,6.65
2023-03-17T05:52:23.931Z,6.53
2023-03-17T05:54:52.344Z,6.48
2023-03-17T05:57:20.294Z,6.52
2023-03-17T05:59:48.278Z,6.57
2023-03-17T06:02:16.133Z,6.59
2023-03-17T06:04:45.412Z,6.71
2023-03-17T06:07:13.947Z,6.79
2023-03-17T06:09:44.605Z,6.91
2023-03-17T06:12:12.472Z,7.01
2023-03-17T06:14:40.401Z,6.97
2023-03-17T06:17:08.570Z,6.84
2023-03-17T06:19:36.482Z,6.79
2023-03-17T06:22:05.731Z,6.93
2023-03-17T06:24:33.562Z,7.04
2023-03-17T06:27:01.848Z,6.98
2023-03-17T06:29:30.026Z,6.96
2023-03-17T06:32:01.485Z,7.01
2023-03-17T06:34:37.357Z,7.03
2023-03-17T06:37:07.857Z,7.12
2023-03-17T06:39:35.970Z,7.10
2023-03-17T06:42:06.258Z,7.20
2023-03-17T06:44:34.127Z,7.44
2023-03-17T06:47:02.118Z,7.51
2023-03-17T06:49:30.055Z,7.58
2023-03-17T06:51:58.111Z,7.55
2023-03-17T06:54:27.391Z,7.62
2023-03-17T06:56:55.400Z,7.69
2023-03-17T06:59:23.372Z,7.84
2023-03-17T07:01:52.125Z,7.90
2023-03-17T07:04:21.115Z,7.99
2023-03-17T07:06:51.634Z,8.09
2023-03-17T07:09:19.475Z,8.18
2023-03-17T07:11:48.582Z,8.23
2023-03-17T07:14:16.303Z,8.26
2023-03-17T07:16:45.239Z,8.36
2023-03-17T07:19:13.068Z,8.49
2023-03-17T07:21:40.868Z,8.63
2023-03-17T07:24:10.045Z,8.73
2023-03-17T07:26:37.997Z,8.82
2023-03-17T07:29:08.306Z,8.90
2023-03-17T07:31:38.796Z,8.94
2023-03-17T07:34:08.062Z,9.03
2023-03-17T07:36:36.563Z,9.12
2023-03-17T07:39:05.275Z,9.15
2023-03-17T07:41:32.991Z,9.24
2023-03-17T07:44:01.094Z,9.34
2023-03-17T07:46:30.962Z,9.42
2023-03-17T07:48:59.178Z,9.53
2023-03-17T07:51:28.315Z,9.66
2023-03-17T07:54:03.264Z,9.87
2023-03-17T07:56:31.863Z,9.84
2023-03-17T07:59:00.143Z,9.95
2023-03-17T08:01:28.926Z,9.96
2023-03-17T08:03:58.418Z,10.07
2023-03-17T08:06:26.535Z,10.09
2023-03-17T08:08:55.237Z,10.17
2023-03-17T08:11:23.524Z,10.36
2023-03-17T08:13:51.846Z,10.50
2023-03-17T08:16:19.785Z,10.69
2023-03-17T08:18:48.005Z,10.83
2023-03-17T08:21:17.647Z,10.99
2023-03-17T08:23:45.657Z,11.14
2023-03-17T08:26:14.878Z,11.35
2023-03-17T08:28:42.983Z,12.10
2023-03-17T08:31:13.086Z,13.17
2023-03-17T08:33:42.402Z,14.55
2023-03-17T08:36:11.643Z,16.09
2023-03-17T08:38:42.972Z,17.04
2023-03-17T08:41:13.886Z,16.69
2023-03-17T08:43:44.017Z,16.48
2023-03-17T08:46:17.206Z,16.44
2023-03-17T08:48:46.837Z,16.35
2023-03-17T08:51:18.100Z,16.99
2023-03-17T08:53:48.162Z,17.46
2023-03-17T08:56:16.956Z,18.58
2023-03-17T08:58:45.852Z,18.79
2023-03-17T09:01:14.633Z,19.71
2023-03-17T09:03:42.758Z,21.44
2023-03-17T09:06:12.141Z,23.34
2023-03-17T09:08:44.462Z,25.53
2023-03-17T09:11:16.688Z,27.14
2023-03-17T09:13:46.529Z,26.82
2023-03-17T09:16:14.995Z,25.50
2023-03-17T09:18:43.440Z,25.54
2023-03-17T09:21:12.713Z,24.99
2023-03-17T09:23:41.059Z,24.38
2023-03-17T09:26:10.200Z,24.11
2023-03-17T09:28:39.461Z,24.04
2023-03-17T09:31:11.365Z,23.99
2023-03-17T09:33:39.671Z,24.37
2023-03-17T09:36:08.217Z,23.71
2023-03-17T09:38:37.243Z,23.20
2023-03-17T09:41:24.646Z,23.20
2023-03-17T09:44:02.171Z,23.18
2023-03-17T09:46:41.489Z,22.72
2023-03-17T09:49:13.753Z,21.87
2023-03-17T09:51:45.033Z,21.87
2023-03-17T09:54:18.362Z,21.88
2023-03-17T09:56:51.382Z,21.82
2023-03-17T09:59:30.946Z,22.17
2023-03-17T10:01:58.925Z,22.73
2023-03-17T10:04:27.164Z,23.61
2023-03-17T10:07:02.115Z,24.60
2023-03-17T10:09:36.981Z,24.24
2023-03-17T10:12:11.094Z,24.07
2023-03-17T10:14:51.111Z,24.00
2023-03-17T10:17:22.288Z,24.27
2023-03-17T10:19:58.651Z,24.64
2023-03-17T10:22:32.048Z,24.46
2023-03-17T10:25:07.177Z,24.35
2023-03-17T10:27:38.658Z,24.69
2023-03-17T10:30:16.247Z,24.72
2023-03-17T10:32:45.029Z,24.47
2023-03-17T10:35:13.099Z,24.38
2023-03-17T10:37:43.916Z,24.35
2023-03-17T10:40:22.466Z,24.09
2023-03-17T10:45:29.326Z,23.69
2023-03-17T10:47:58.908Z,23.12
2023-03-17T10:50:30.485Z,22.42
2023-03-17T10:53:00.741Z,21.92
2023-03-17T10:55:32.522Z,21.18
2023-03-17T10:58:04.936Z,20.21
2023-03-17T11:00:36.604Z,19.90
2023-03-17T11:03:13.102Z,19.89
2023-03-17T11:05:40.825Z,19.61
2023-03-17T11:08:12.622Z,19.35
2023-03-17T11:10:42.186Z,19.02
2023-03-17T11:13:10.495Z,18.79
2023-03-17T11:15:47.810Z,18.68
2023-03-17T11:18:20.452Z,18.81
2023-03-17T11:20:54.113Z,19.03
2023-03-17T11:23:45.428Z,19.06
2023-03-17T11:26:28.033Z,19.23
2023-03-17T11:29:06.774Z,19.57
2023-03-17T11:31:43.554Z,19.32
2023-03-17T11:34:20.547Z,19.15
2023-03-17T11:37:00.231Z,19.20
2023-03-17T11:39:37.807Z,19.37
2023-03-17T11:42:14.886Z,18.94
2023-03-17T11:45:16.753Z,18.78
2023-03-17T11:48:08.239Z,18.53
2023-03-17T11:50:41.991Z,18.31
2023-03-17T11:53:25.545Z,18.09
2023-03-17T11:55:58.837Z,17.76
2023-03-17T11:58:35.487Z,17.67
2023-03-17T12:01:08.920Z,17.50
2023-03-17T12:03:46.129Z,17.41
2023-03-17T12:06:20.513Z,17.39
2023-03-17T12:08:53.354Z,17.37
2023-03-17T12:11:26.241Z,17.35
2023-03-17T12:13:59.516Z,17.17
2023-03-17T12:16:33.161Z,17.10
2023-03-17T12:19:11.474Z,17.13
2023-03-17T12:21:45.882Z,17.17
2023-03-17T12:24:20.104Z,17.15
2023-03-17T12:26:57.621Z,17.04
2023-03-17T12:29:37.813Z,17.18
2023-03-17T12:32:11.546Z,17.20
2023-03-17T12:34:46.595Z,17.22
2023-03-17T12:37:17.578Z,17.24
2023-03-17T12:39:52.448Z,17.04
2023-03-17T12:42:31.250Z,16.96
2023-03-17T12:45:28.364Z,16.95
2023-03-17T12:48:16.921Z,16.82
2023-03-17T12:51:18.845Z,16.69
2023-03-17T12:53:50.623Z,16.71
2023-03-17T12:56:22.708Z,16.70
2023-03-17T12:58:52.192Z,16.75
2023-03-17T13:01:31.985Z,16.74
2023-03-17T13:04:14.036Z,16.62
2023-03-17T13:06:45.292Z,16.67
2023-03-17T13:09:43.297Z,16.70
2023-03-17T13:12:44.580Z,16.66
2023-03-17T13:15:24.606Z,16.61
2023-03-17T13:17:53.758Z,16.70
2023-03-17T13:20:36.900Z,16.56
2023-03-17T13:23:14.911Z,16.62
2023-03-17T13:25:53.565Z,16.65
2023-03-17T13:28:27.485Z,16.64
2023-03-17T13:31:34.726Z,16.69
2023-03-17T13:34:16.347Z,16.65
2023-03-17T13:36:54.926Z,16.61
2023-03-17T13:39:38.770Z,16.57
2023-03-17T13:42:20.892Z,16.57
2023-03-17T13:45:08.718Z,16.54
2023-03-17T13:47:39.917Z,16.49
2023-03-17T13:50:13.467Z,16.43
2023-03-17T13:52:44.194Z,16.38
2023-03-17T13:55:36.051Z,16.40
2023-03-17T13:58:36.436Z,16.34
2023-03-17T14:01:09.251Z,16.37
2023-03-17T14:03:42.989Z,16.28
2023-03-17T14:06:14.243Z,16.21
2023-03-17T14:08:47.505Z,16.26
2023-03-17T14:11:28.374Z,16.21
2023-03-17T14:14:31.457Z,16.19
2023-03-17T14:17:06.228Z,16.24
2023-03-17T14:19:33.969Z,16.26
2023-03-17T14:22:19.287Z,16.19
2023-03-17T14:24:51.917Z,16.18
2023-03-17T14:27:19.981Z,16.18
2023-03-17T14:29:49.263Z,16.16
2023-03-17T14:32:19.752Z,16.16
2023-03-17T14:34:52.964Z,16.16
2023-03-17T14:37:21.320Z,16.10
2023-03-17T14:39:52.217Z,16.12
2023-03-17T14:42:22.052Z,16.09
2023-03-17T14:45:01.605Z,16.06
2023-03-17T14:47:31.038Z,16.04
2023-03-17T14:49:58.734Z,16.05
2023-03-17T14:52:28.857Z,16.05
2023-03-17T14:54:59.979Z,16.05
2023-03-17T14:57:32.363Z,15.96
2023-03-17T15:00:04.572Z,15.92
2023-03-17T15:02:35.390Z,15.92
2023-03-17T15:05:07.856Z,15.88
2023-03-17T15:07:39.642Z,15.95
2023-03-17T15:10:14.520Z,15.93
2023-03-17T15:12:42.682Z,15.93
2023-03-17T15:15:22.797Z,15.92
2023-03-17T15:17:55.334Z,15.94
2023-03-17T15:20:26.769Z,15.83
2023-03-17T15:22:59.683Z,15.84
2023-03-17T15:25:34.078Z,15.83
2023-03-17T15:28:02.182Z,15.84
2023-03-17T15:30:44.338Z,15.82
2023-03-17T15:33:22.265Z,15.78
2023-03-17T15:35:51.346Z,15.70
2023-03-17T15:38:19.179Z,15.70
2023-03-17T15:40:47.123Z,15.69
2023-03-17T15:43:16.285Z,15.68
2023-03-17T15:45:46.436Z,15.65
2023-03-17T15:48:21.377Z,15.62
2023-03-17T15:50:49.888Z,15.56
2023-03-17T15:53:18.060Z,15.56
2023-03-17T15:55:46.230Z,15.53
2023-03-17T15:58:14.129Z,15.51
2023-03-17T16:00:42.856Z,15.49
2023-03-17T16:03:19.861Z,15.46
2023-03-17T16:05:47.861Z,15.43
2023-03-17T16:08:17.804Z,15.38
2023-03-17T16:10:46.406Z,15.37
2023-03-17T16:13:14.115Z,15.34
2023-03-17T16:15:44.682Z,15.32
2023-03-17T16:18:18.135Z,15.29
2023-03-17T16:20:48.067Z,15.27
2023-03-17T16:23:19.782Z,15.23
2023-03-17T16:25:47.691Z,15.17
2023-03-17T16:28:17.891Z,15.12
2023-03-17T16:30:47.417Z,15.10
2023-03-17T16:33:19.957Z,15.06
2023-03-17T16:35:49.627Z,15.02
2023-03-17T16:38:19.708Z,14.98
2023-03-17T16:40:49.375Z,14.96
2023-03-17T16:43:25.831Z,14.93
2023-03-17T16:45:55.807Z,14.91
2023-03-17T16:48:27.262Z,14.88
2023-03-17T16:50:55.804Z,14.85
2023-03-17T16:53:24.821Z,14.82
2023-03-17T16:55:57.949Z,14.81
2023-03-17T16:58:27.799Z,14.80
2023-03-17T17:00:59.427Z,14.80
2023-03-17T17:03:29.173Z,14.77
2023-03-17T17:05:57.056Z,14.76
2023-03-17T17:08:24.887Z,14.73
2023-03-17T17:10:52.719Z,14.73
2023-03-17T17:13:20.566Z,14.67
2023-03-17T17:15:48.636Z,14.66
2023-03-17T17:18:18.767Z,14.61
2023-03-17T17:20:47.852Z,14.58
2023-03-17T17:23:17.588Z,14.58
2023-03-17T17:25:48.143Z,14.58
2023-03-17T17:28:17.949Z,14.59
2023-03-17T17:30:48.023Z,14.56
2023-03-17T17:33:16.906Z,14.51
2023-03-17T17:35:45.563Z,14.46
2023-03-17T17:38:20.936Z,14.72
2023-03-17T17:40:50.970Z,14.51
2023-03-17T17:43:19.144Z,14.44
2023-03-17T17:45:49.688Z,14.40
2023-03-17T17:48:18.821Z,14.37
2023-03-17T17:50:46.745Z,14.36
2023-03-17T17:53:14.809Z,14.36
2023-03-17T17:55:44.921Z,14.32
2023-03-17T17:58:14.055Z,14.29
2023-03-17T18:00:42.134Z,14.26
2023-03-17T18:03:10.192Z,14.25
2023-03-17T18:05:38.232Z,14.24
2023-03-17T18:08:06.593Z,14.21
2023-03-17T18:10:35.105Z,14.19
2023-03-17T18:13:05.137Z,14.18
2023-03-17T18:15:32.797Z,14.15
2023-03-17T18:18:00.552Z,14.14
2023-03-17T18:20:28.784Z,14.14
2023-03-17T18:22:56.693Z,14.10
2023-03-17T18:25:25.642Z,14.13
2023-03-17T18:27:54.013Z,14.10
2023-03-17T18:30:25.730Z,14.08
2023-03-17T18:32:57.092Z,14.04
2023-03-17T18:35:28.098Z,14.03
2023-03-17T18:37:57.454Z,14.04
2023-03-17T18:40:25.300Z,14.01
2023-03-17T18:42:53.165Z,14.00
2023-03-17T18:45:20.902Z,13.98
2023-03-17T18:47:50.037Z,13.99
2023-03-17T18:50:18.390Z,14.05
2023-03-17T18:52:46.755Z,13.99
2023-03-17T18:55:15.796Z,13.97
2023-03-17T18:57:44.714Z,13.96
2023-03-17T19:00:14.431Z,13.94
2023-03-17T19:02:42.148Z,13.90
2023-03-17T19:05:11.762Z,13.92
2023-03-17T19:07:40.621Z,13.94
2023-03-17T19:10:09.950Z,13.92
2023-03-17T19:12:38.500Z,13.85
2023-03-17T19:15:07.953Z,13.84
2023-03-17T19:17:36.176Z,13.85
2023-03-17T19:20:06.735Z,13.82
2023-03-17T19:22:36.186Z,13.78
2023-03-17T19:25:04.374Z,13.76
2023-03-17T19:27:32.256Z,13.73
2023-03-17T19:30:00.134Z,13.64
2023-03-17T19:32:28.017Z,13.57
2023-03-17T19:34:55.735Z,13.52
2023-03-17T19:37:23.752Z,13.52
2023-03-17T19:39:52.727Z,13.56
2023-03-17T19:42:20.421Z,13.59
2023-03-17T19:44:48.120Z,13.57
2023-03-17T19:47:15.992Z,13.52
2023-03-17T19:49:43.688Z,13.55
2023-03-17T19:52:11.486Z,13.55
2023-03-17T19:54:43.566Z,13.57
2023-03-17T19:57:13.195Z,13.57
2023-03-17T19:59:41.444Z,13.53
2023-03-17T20:02:09.489Z,13.54
2023-03-17T20:04:38.081Z,13.57
2023-03-17T20:07:05.932Z,13.52
2023-03-17T20:09:33.747Z,13.49
2023-03-17T20:12:01.989Z,13.52
2023-03-17T20:14:31.134Z,13.60
2023-03-17T20:16:59.095Z,13.59
2023-03-17T20:19:27.700Z,13.53
2023-03-17T20:21:58.383Z,13.54
2023-03-17T20:24:27.088Z,13.55
2023-03-17T20:26:57.319Z,13.59
2023-03-17T20:29:25.760Z,13.56
2023-03-17T20:31:55.254Z,13.53
2023-03-17T20:34:23.639Z,13.51
2023-03-17T20:36:51.913Z,13.47
2023-03-17T20:39:20.639Z,13.46
2023-03-17T20:41:49.072Z,13.52
2023-03-17T20:44:17.675Z,13.47
2023-03-17T20:46:46.040Z,13.51
2023-03-17T20:49:15.814Z,13.52
2023-03-17T20:51:44.122Z,13.54
2023-03-17T20:54:12.658Z,13.56
2023-03-17T20:56:40.887Z,13.51
2023-03-17T20:59:09.887Z,13.53
2023-03-17T21:01:40.248Z,13.57
2023-03-17T21:04:09.876Z,13.56
2023-03-17T21:06:39.642Z,13.56
2023-03-17T21:09:07.699Z,13.55
2023-03-17T21:11:36.848Z,13.53
2023-03-17T21:14:06.888Z,13.51
2023-03-17T21:16:36.338Z,13.50
2023-03-17T21:19:06.104Z,13.51
2023-03-17T21:21:35.654Z,13.50
2023-03-17T21:24:08.396Z,13.41
2023-03-17T21:26:36.250Z,13.45
2023-03-17T21:29:04.322Z,13.36
2023-03-17T21:31:32.383Z,13.34
2023-03-17T21:34:00.132Z,13.37
2023-03-17T21:36:28.652Z,13.34
2023-03-17T21:38:56.434Z,13.28
2023-03-17T21:41:33.213Z,13.35
2023-03-17T21:44:03.091Z,13.34
2023-03-17T21:46:31.621Z,13.24
2023-03-17T21:49:00.303Z,13.28
2023-03-17T21:51:28.479Z,13.32
2023-03-17T21:53:57.271Z,13.19
2023-03-17T21:56:27.345Z,13.24
2023-03-17T21:58:55.227Z,13.26
2023-03-17T22:01:23.392Z,13.27
2023-03-17T22:03:52.473Z,13.24
2023-03-17T22:06:21.442Z,13.25
2023-03-17T22:08:50.583Z,13.31
2023-03-17T22:11:19.483Z,13.25
2023-03-17T22:13:49.252Z,13.21
2023-03-17T22:16:18.517Z,13.22
2023-03-17T22:18:49.645Z,13.26
2023-03-17T22:21:17.964Z,13.26
2023-03-17T22:23:46.246Z,13.26
2023-03-17T22:26:16.474Z,13.24
2023-03-17T22:28:45.596Z,13.21
2023-03-17T22:31:16.567Z,13.24
2023-03-17T22:33:44.986Z,13.23
2023-03-17T22:36:12.787Z,13.28
2023-03-17T22:38:40.718Z,13.28
2023-03-17T22:41:11.306Z,13.24
2023-03-17T22:43:40.263Z,13.16
2023-03-17T22:46:08.551Z,13.20
2023-03-17T22:48:38.137Z,13.16
2023-03-17T22:51:08.194Z,13.18
2023-03-17T22:53:36.672Z,13.16
2023-03-17T22:56:05.833Z,13.14
2023-03-17T22:58:33.881Z,13.16
2023-03-17T23:01:02.615Z,13.14
2023-03-17T23:03:31.992Z,13.18
2023-03-17T23:06:03.878Z,13.21
2023-03-17T23:08:35.027Z,13.19
2023-03-17T23:11:07.081Z,13.19
2023-03-17T23:13:35.231Z,13.21
2023-03-17T23:16:04.662Z,13.18
2023-03-17T23:18:33.221Z,13.13
2023-03-17T23:21:03.670Z,13.14
2023-03-17T23:23:31.923Z,13.14
2023-03-17T23:25:59.743Z,13.15
2023-03-17T23:28:28.199Z,13.13
2023-03-17T23:30:56.254Z,13.14
2023-03-17T23:33:25.674Z,13.15
2023-03-17T23:35:54.066Z,13.03
2023-03-17T23:38:23.456Z,13.03
2023-03-17T23:40:51.717Z,13.06
2023-03-17T23:43:19.490Z,13.06
2023-03-17T23:45:47.972Z,13.11
2023-03-17T23:48:15.738Z,13.09
2023-03-17T23:50:44.208Z,13.07
2023-03-17T23:53:13.269Z,13.04
2023-03-17T23:55:42.416Z,13.05
2023-03-17T23:58:10.169Z,13.07
